Main page
Satellite images 15-day forecastsClimateMarine weather Cyclones Lightning AirportsFAQ Newsletter About
Weather : Europe Africa North America South America Asia Australia-Oceania Others
Languages Contact

Singapore, Singapore

Military airbase Paya Lebar

latitude: 01-22N, longitude: 103-55E, elevation: 18 m


METAR: WSAP 211300Z 06001KT 9000 FEW018 BKN300 26/24 Q1011
TAF: WSAP 211100Z 2112/2218 VRB05KT 9999 FEW015CB SCT020 TEMPO 2202/2206 3000 TSRA FEW012CB BKN015

Time: 21:31 (13:31 UTC)

Current weather observation

The report was made 31 minutes ago, at 13:00 UTC
Wind 01 kt from the East/Northeast
Temperature 26°C
Humidity 89%
Pressure 1011 hPa
Visibility: 9000 m
Few clouds at a height of 1800 ft
Broken clouds at a height of 30000 ft

Change units

Forecast

The report was made 02 hours and 31 minutes ago, at 11:00 UTC
Forecast valid from 21 at 12 UTC to 22 at 18 UTC
Wind 05 kt from variable directions
Visibility 10 km or more
Few clouds at a height of 1500 ft, Cumulonimbus.
Scattered clouds at a height of 2000 ft
Temporary
from 22 at 02 UTC to 22 at 06 UTC
Visibility: 3000 m
Few clouds at a height of 1200 ft, Cumulonimbus.
Broken clouds at a height of 1500 ft
thunderstorm rain
The information on this site is subject to a disclaimer
Weather : Europe Africa North America South America Asia Australia-Oceania Others
Satellite images 15-day forecastsClimateMarine weather Cyclones Lightning AirportsFAQ Languages Contact Newsletter About